createdAt,value
2022-12-16T00:01:28.163Z,16.98
2022-12-16T00:03:58.314Z,15.50
2022-12-16T00:06:32.968Z,15.70
2022-12-16T00:09:02.003Z,15.38
2022-12-16T00:11:32.146Z,15.15
2022-12-16T00:14:00.109Z,14.55
2022-12-16T00:16:29.094Z,16.05
2022-12-16T00:18:57.206Z,15.65
2022-12-16T00:21:29.802Z,14.98
2022-12-16T00:23:58.666Z,16.30
2022-12-16T00:26:26.622Z,15.45
2022-12-16T00:28:54.893Z,16.67
2022-12-16T00:31:23.935Z,15.02
2022-12-16T00:33:53.072Z,15.45
2022-12-16T00:36:21.035Z,13.40
2022-12-16T00:38:49.579Z,15.52
2022-12-16T00:41:17.536Z,15.38
2022-12-16T00:43:45.644Z,17.27
2022-12-16T00:46:13.633Z,15.82
2022-12-16T00:48:41.691Z,15.52
2022-12-16T00:51:09.949Z,16.25
2022-12-16T00:53:38.371Z,15.30
2022-12-16T00:56:12.309Z,14.75
2022-12-16T00:58:41.036Z,14.82
2022-12-16T01:01:08.947Z,14.95
2022-12-16T01:03:38.175Z,15.18
2022-12-16T01:06:17.047Z,15.90
2022-12-16T01:08:49.043Z,15.02
2022-12-16T01:11:19.565Z,16.35
2022-12-16T01:13:52.077Z,15.98
2022-12-16T01:16:20.426Z,15.95
2022-12-16T01:18:48.525Z,17.05
2022-12-16T01:21:16.568Z,16.38
2022-12-16T01:23:44.521Z,15.35
2022-12-16T01:26:17.686Z,16.65
2022-12-16T01:28:47.969Z,18.48
2022-12-16T01:31:19.166Z,13.15
2022-12-16T01:33:47.579Z,17.63
2022-12-16T01:36:15.703Z,16.30
2022-12-16T01:38:44.887Z,18.27
2022-12-16T01:41:15.553Z,17.83
2022-12-16T01:43:45.344Z,18.67
2022-12-16T01:46:21.191Z,20.10
2022-12-16T01:49:06.217Z,19.65
2022-12-16T01:51:48.848Z,18.75
2022-12-16T01:54:31.029Z,19.67
2022-12-16T01:57:04.437Z,18.58
2022-12-16T01:59:35.846Z,19.60
2022-12-16T02:02:05.157Z,21.55
2022-12-16T02:04:33.543Z,19.70
2022-12-16T02:07:02.070Z,18.23
2022-12-16T02:09:30.173Z,21.55
2022-12-16T02:12:42.210Z,21.10
2022-12-16T02:16:04.575Z,21.02
2022-12-16T02:21:59.700Z,19.45
2022-12-16T02:25:26.492Z,18.98
2022-12-16T02:28:03.534Z,17.63
2022-12-16T02:30:42.218Z,19.20
2022-12-16T02:34:11.238Z,18.15
2022-12-16T02:37:10.269Z,17.42
2022-12-16T02:40:00.788Z,17.30
2022-12-16T02:42:37.369Z,16.55
2022-12-16T02:45:13.836Z,15.18
2022-12-16T02:47:41.756Z,15.90
2022-12-16T02:50:23.704Z,16.10
2022-12-16T02:52:54.067Z,16.25
2022-12-16T02:55:29.674Z,16.77
2022-12-16T02:58:16.427Z,16.33
2022-12-16T03:01:25.967Z,16.27
2022-12-16T03:04:11.073Z,13.38
2022-12-16T03:06:43.421Z,15.02
2022-12-16T03:09:15.495Z,15.98
2022-12-16T03:11:46.681Z,14.27
2022-12-16T03:14:18.149Z,14.02
2022-12-16T03:16:48.026Z,15.73
2022-12-16T03:19:16.603Z,15.27
2022-12-16T03:22:09.393Z,14.05
2022-12-16T03:24:38.225Z,15.00
2022-12-16T03:27:48.170Z,13.02
2022-12-16T03:30:30.342Z,14.95
2022-12-16T03:33:23.594Z,15.55
2022-12-16T03:36:00.632Z,15.35
2022-12-16T03:38:31.306Z,14.85
2022-12-16T03:41:01.538Z,15.20
2022-12-16T03:43:30.322Z,15.25
2022-12-16T03:46:04.907Z,15.88
2022-12-16T03:48:34.124Z,14.88
2022-12-16T03:51:02.931Z,15.52
2022-12-16T03:53:31.321Z,15.32
2022-12-16T03:55:59.494Z,15.05
2022-12-16T03:58:27.415Z,14.75
2022-12-16T04:00:55.397Z,16.48
2022-12-16T04:03:23.600Z,15.90
2022-12-16T04:05:51.590Z,14.88
2022-12-16T04:08:20.021Z,16.30
2022-12-16T04:11:10.884Z,15.88
2022-12-16T04:13:58.083Z,15.52
2022-12-16T04:16:47.713Z,16.60
2022-12-16T04:19:49.759Z,15.73
2022-12-16T04:22:52.129Z,16.98
2022-12-16T04:25:28.022Z,16.65
2022-12-16T04:27:58.850Z,15.98
2022-12-16T04:30:28.268Z,15.98
2022-12-16T04:33:19.409Z,15.75
2022-12-16T04:36:06.578Z,15.55
2022-12-16T04:38:53.515Z,17.15
2022-12-16T04:41:39.983Z,16.20
2022-12-16T04:44:26.974Z,14.95
2022-12-16T04:47:13.767Z,16.17
2022-12-16T04:50:00.236Z,16.73
2022-12-16T04:52:47.196Z,17.75
2022-12-16T04:55:33.827Z,16.75
2022-12-16T04:58:21.780Z,15.95
2022-12-16T05:01:09.682Z,14.07
2022-12-16T05:03:56.153Z,16.10
2022-12-16T05:06:43.013Z,15.10
2022-12-16T05:09:29.429Z,14.88
2022-12-16T05:12:16.053Z,14.30
2022-12-16T05:15:02.531Z,14.23
2022-12-16T05:17:49.423Z,14.15
2022-12-16T05:20:36.795Z,14.80
2022-12-16T05:23:23.338Z,14.80
2022-12-16T05:26:10.082Z,16.38
2022-12-16T05:28:56.633Z,15.57
2022-12-16T05:31:43.561Z,13.98
2022-12-16T05:34:30.257Z,15.05
2022-12-16T05:37:17.334Z,16.38
2022-12-16T05:40:04.080Z,15.45
2022-12-16T05:42:53.535Z,14.07
2022-12-16T05:45:40.203Z,13.70
2022-12-16T05:48:47.998Z,15.85
2022-12-16T05:51:34.528Z,15.98
2022-12-16T05:54:20.953Z,14.77
2022-12-16T05:57:07.701Z,15.73
2022-12-16T05:59:54.854Z,14.05
2022-12-16T06:02:41.917Z,15.65
2022-12-16T06:05:28.838Z,14.15
2022-12-16T06:08:15.444Z,15.07
2022-12-16T06:11:01.858Z,14.82
2022-12-16T06:13:48.728Z,16.38
2022-12-16T06:16:35.203Z,14.43
2022-12-16T06:19:21.750Z,15.85
2022-12-16T06:22:08.259Z,17.10
2022-12-16T06:24:54.955Z,15.68
2022-12-16T06:27:41.648Z,12.10
2022-12-16T06:30:29.563Z,15.80
2022-12-16T06:33:16.259Z,13.98
2022-12-16T06:36:02.898Z,14.07
2022-12-16T06:38:50.049Z,15.95
2022-12-16T06:41:37.292Z,14.20
2022-12-16T06:44:23.899Z,14.38
2022-12-16T06:47:10.608Z,15.75
2022-12-16T06:49:58.265Z,15.45
2022-12-16T06:52:44.787Z,13.10
2022-12-16T06:55:31.698Z,10.65
2022-12-16T06:58:19.344Z,13.80
2022-12-16T07:01:26.617Z,14.48
2022-12-16T07:04:13.270Z,14.52
2022-12-16T07:06:59.757Z,14.70
2022-12-16T07:09:46.795Z,13.65
2022-12-16T07:12:33.703Z,13.65
2022-12-16T07:15:20.259Z,11.48
2022-12-16T07:18:06.866Z,13.30
2022-12-16T07:20:53.637Z,13.90
2022-12-16T07:23:41.491Z,11.82
2022-12-16T07:26:28.048Z,14.02
2022-12-16T07:29:14.886Z,13.80
2022-12-16T07:32:01.786Z,14.18
2022-12-16T07:34:50.254Z,13.27
2022-12-16T07:37:38.649Z,14.40
2022-12-16T07:40:26.240Z,14.35
2022-12-16T07:43:13.297Z,13.60
2022-12-16T07:45:59.811Z,14.05
2022-12-16T07:48:46.451Z,14.93
2022-12-16T07:51:32.932Z,12.20
2022-12-16T07:54:19.563Z,14.88
2022-12-16T07:57:06.265Z,14.05
2022-12-16T07:59:52.857Z,14.40
2022-12-16T08:02:40.116Z,13.25
2022-12-16T08:05:27.003Z,14.55
2022-12-16T08:08:13.834Z,12.57
2022-12-16T08:11:00.923Z,13.98
2022-12-16T08:13:47.549Z,11.82
2022-12-16T08:16:34.253Z,11.90
2022-12-16T08:19:20.663Z,14.25
2022-12-16T08:22:07.322Z,14.15
2022-12-16T08:24:53.845Z,13.10
2022-12-16T08:27:43.143Z,12.35
2022-12-16T08:30:30.298Z,13.35
2022-12-16T08:33:30.640Z,12.05
2022-12-16T08:36:18.241Z,13.27
2022-12-16T08:39:05.235Z,12.10
2022-12-16T08:41:51.862Z,12.50
2022-12-16T08:44:39.697Z,13.02
2022-12-16T08:47:26.151Z,13.50
2022-12-16T08:50:12.972Z,12.52
2022-12-16T08:52:59.500Z,10.95
2022-12-16T08:55:54.391Z,10.35
2022-12-16T08:58:44.152Z,11.13
2022-12-16T09:01:31.790Z,10.85
2022-12-16T09:04:19.383Z,9.45
2022-12-16T09:07:06.071Z,11.00
2022-12-16T09:11:02.952Z,10.65
2022-12-16T09:21:56.592Z,11.27
2022-12-16T09:52:57.836Z,9.98
2022-12-16T10:01:05.163Z,9.15
2022-12-16T10:04:12.018Z,14.25
2022-12-16T10:11:37.592Z,7.68
2022-12-16T10:23:14.219Z,8.32
2022-12-16T10:30:32.976Z,8.15
2022-12-16T10:33:22.873Z,7.40
2022-12-16T10:40:06.097Z,8.70
2022-12-16T10:46:46.596Z,8.10
2022-12-16T10:50:01.025Z,8.00
2022-12-16T10:53:39.452Z,7.70
2022-12-16T10:57:04.830Z,7.93
2022-12-16T11:00:26.768Z,7.53
2022-12-16T11:03:38.193Z,8.32
2022-12-16T11:07:10.948Z,7.38
2022-12-16T11:11:01.774Z,7.97
2022-12-16T11:16:57.755Z,8.48
2022-12-16T11:27:49.023Z,7.63
2022-12-16T11:30:51.063Z,7.63
2022-12-16T11:33:51.970Z,8.77
2022-12-16T11:39:59.251Z,8.57
2022-12-16T11:42:51.776Z,8.18
2022-12-16T11:45:43.676Z,9.15
2022-12-16T11:49:06.450Z,8.73
2022-12-16T11:52:08.125Z,8.75
2022-12-16T11:56:05.457Z,9.25
2022-12-16T11:59:07.559Z,8.57
2022-12-16T12:02:20.076Z,7.93
2022-12-16T12:05:12.984Z,9.02
2022-12-16T12:08:16.623Z,10.32
2022-12-16T12:34:35.395Z,8.00
2022-12-16T12:42:30.567Z,7.53
2022-12-16T12:50:35.408Z,7.78
2022-12-16T12:53:57.632Z,8.30
2022-12-16T13:01:11.780Z,8.52
2022-12-16T13:04:50.256Z,8.90
2022-12-16T13:07:38.775Z,7.70
2022-12-16T13:10:50.868Z,8.27
2022-12-16T13:13:59.641Z,9.80
2022-12-16T13:17:05.248Z,8.50
2022-12-16T13:20:20.430Z,8.30
2022-12-16T13:23:09.027Z,9.40
2022-12-16T13:26:10.468Z,8.13
2022-12-16T13:29:25.017Z,8.35
2022-12-16T13:32:32.930Z,7.97
2022-12-16T13:35:27.318Z,8.35
2022-12-16T13:38:39.024Z,8.38
2022-12-16T13:41:46.846Z,10.10
2022-12-16T13:45:03.214Z,8.70
2022-12-16T13:48:14.543Z,8.10
2022-12-16T13:51:19.578Z,8.52
2022-12-16T13:54:12.562Z,8.63
2022-12-16T13:57:19.971Z,8.60
2022-12-16T14:00:09.904Z,8.63
2022-12-16T14:04:11.375Z,9.07
2022-12-16T14:07:09.626Z,9.50
2022-12-16T14:10:01.482Z,8.73
2022-12-16T14:13:07.928Z,8.77
2022-12-16T14:16:16.381Z,9.05
2022-12-16T14:19:56.441Z,8.70
2022-12-16T14:23:56.476Z,8.10
2022-12-16T14:26:45.581Z,7.72
2022-12-16T14:29:45.309Z,8.52
2022-12-16T14:36:58.991Z,8.30
2022-12-16T14:39:56.082Z,8.13
2022-12-16T14:42:50.279Z,8.43
2022-12-16T14:45:57.168Z,8.60
2022-12-16T14:49:13.954Z,8.65
2022-12-16T14:52:56.486Z,8.48
2022-12-16T14:55:51.445Z,8.50
2022-12-16T14:58:48.501Z,8.63
2022-12-16T15:01:41.979Z,9.35
2022-12-16T15:04:39.698Z,8.80
2022-12-16T15:07:32.427Z,9.85
2022-12-16T15:10:26.807Z,10.50
2022-12-16T15:13:13.952Z,10.45
2022-12-16T15:16:16.081Z,11.25
2022-12-16T15:22:05.822Z,10.38
2022-12-16T15:24:57.715Z,11.82
2022-12-16T15:27:55.560Z,10.48
2022-12-16T15:30:54.168Z,10.75
2022-12-16T15:33:53.840Z,9.10
2022-12-16T15:36:51.184Z,9.38
2022-12-16T15:39:54.766Z,10.65
2022-12-16T15:43:02.119Z,9.75
2022-12-16T15:50:23.560Z,11.75
2022-12-16T15:53:10.666Z,12.52
2022-12-16T15:56:04.983Z,11.65
2022-12-16T15:58:56.014Z,11.98
2022-12-16T16:01:47.245Z,12.40
2022-12-16T16:04:48.605Z,12.55
2022-12-16T16:07:42.055Z,11.68
2022-12-16T16:10:42.268Z,11.00
2022-12-16T16:13:30.056Z,11.73
2022-12-16T16:16:18.531Z,9.98
2022-12-16T16:19:06.207Z,9.77
2022-12-16T16:21:53.262Z,9.95
2022-12-16T16:24:41.487Z,10.10
2022-12-16T16:27:31.765Z,9.77
2022-12-16T16:30:20.090Z,8.77
2022-12-16T16:33:07.063Z,8.85
2022-12-16T16:35:54.143Z,9.50
2022-12-16T16:38:44.066Z,8.52
2022-12-16T16:41:35.638Z,9.90
2022-12-16T16:44:23.612Z,10.10
2022-12-16T16:47:17.782Z,8.93
2022-12-16T16:50:06.416Z,10.07
2022-12-16T16:53:58.816Z,9.18
2022-12-16T17:03:08.589Z,10.30
2022-12-16T17:05:58.992Z,9.10
2022-12-16T17:08:47.011Z,10.10
2022-12-16T17:11:46.172Z,10.57
2022-12-16T17:14:40.296Z,9.97
